createdAt,value
2022-12-08T00:02:06.349Z,99808.48
2022-12-08T00:07:31.642Z,99810.73
2022-12-08T00:12:37.493Z,99814.33
2022-12-08T00:17:43.335Z,99821.48
2022-12-08T00:22:48.969Z,99825.91
2022-12-08T00:27:54.572Z,99830.22
2022-12-08T00:33:00.353Z,99842.75
2022-12-08T00:38:06.317Z,99847.89
2022-12-08T00:43:12.142Z,99859.36
2022-12-08T00:48:17.774Z,99863.65
2022-12-08T00:53:23.544Z,99868.30
2022-12-08T00:58:29.186Z,99871.88
2022-12-08T01:03:34.989Z,99871.52
2022-12-08T01:08:41.508Z,99882.78
2022-12-08T01:13:47.664Z,99886.38
2022-12-08T01:18:53.991Z,99889.46
2022-12-08T01:24:02.542Z,99892.73
2022-12-08T01:29:08.443Z,99892.60
2022-12-08T01:34:15.045Z,99897.55
2022-12-08T01:39:20.925Z,99889.15
2022-12-08T01:46:19.513Z,99896.33
2022-12-08T01:51:25.613Z,99896.14
2022-12-08T01:56:36.776Z,99901.10
2022-12-08T02:01:42.573Z,99904.14
2022-12-08T02:06:50.917Z,99901.71
2022-12-08T02:11:58.973Z,99899.11
2022-12-08T02:17:16.135Z,99900.08
2022-12-08T02:22:29.949Z,99898.15
2022-12-08T02:27:47.753Z,99898.98
2022-12-08T02:33:27.723Z,99899.45
2022-12-08T02:38:48.275Z,99899.38
2022-12-08T02:44:00.481Z,99901.33
2022-12-08T02:49:07.686Z,99899.23
2022-12-08T02:54:15.166Z,99905.86
2022-12-08T02:59:35.838Z,99909.63
2022-12-08T03:04:50.702Z,99916.48
2022-12-08T03:10:03.640Z,99924.79
2022-12-08T03:15:13.176Z,99930.29
2022-12-08T03:20:22.362Z,99936.64
2022-12-08T03:25:33.569Z,99942.09
2022-12-08T03:30:43.399Z,99947.59
2022-12-08T03:35:50.576Z,99953.40
2022-12-08T03:41:15.233Z,99954.23
2022-12-08T03:51:27.677Z,99955.07
2022-12-08T03:56:35.555Z,99955.58
2022-12-08T04:01:41.675Z,99960.84
2022-12-08T04:06:47.528Z,99960.96
2022-12-08T04:11:53.212Z,99964.89
2022-12-08T04:16:58.993Z,99966.14
2022-12-08T04:22:04.824Z,99974.20
2022-12-08T04:27:10.828Z,99978.84
2022-12-08T04:32:16.633Z,99984.69
2022-12-08T04:37:22.629Z,99990.59
2022-12-08T04:42:28.286Z,99993.38
2022-12-08T04:47:34.229Z,99996.10
2022-12-08T04:52:40.049Z,99996.04
2022-12-08T04:57:46.354Z,99996.14
2022-12-08T05:02:52.087Z,99994.96
2022-12-08T05:07:57.890Z,99999.58
2022-12-08T05:13:03.724Z,100014.77
2022-12-08T05:18:10.269Z,100017.36
2022-12-08T05:23:15.836Z,100028.27
2022-12-08T05:28:43.739Z,100032.02
2022-12-08T05:33:49.045Z,100031.86
2022-12-08T05:38:56.470Z,100030.23
2022-12-08T05:44:02.409Z,100028.91
2022-12-08T05:49:08.856Z,100026.75
2022-12-08T05:54:15.322Z,100024.09
2022-12-08T05:59:21.037Z,100032.82
2022-12-08T06:04:26.968Z,100036.02
2022-12-08T06:09:32.782Z,100046.47
2022-12-08T06:14:39.199Z,100061.95
2022-12-08T06:19:44.936Z,100070.02
2022-12-08T06:24:50.533Z,100079.21
2022-12-08T06:29:56.431Z,100086.03
2022-12-08T06:35:02.063Z,100092.41
2022-12-08T06:40:10.341Z,100091.93
2022-12-08T06:45:17.751Z,100093.52
2022-12-08T06:50:23.720Z,100093.70
2022-12-08T07:00:55.368Z,100103.16
2022-12-08T07:06:04.029Z,100106.89
2022-12-08T07:11:14.137Z,100107.70
2022-12-08T07:16:22.491Z,100103.49
2022-12-08T07:21:28.282Z,100109.89
2022-12-08T07:26:34.295Z,100109.97
2022-12-08T07:31:40.487Z,100114.55
2022-12-08T07:36:46.327Z,100129.09
2022-12-08T07:41:51.955Z,100130.58
2022-12-08T07:46:57.672Z,100125.59
2022-12-08T07:52:03.579Z,100125.34
2022-12-08T07:57:09.994Z,100130.41
2022-12-08T08:02:24.960Z,100136.63
2022-12-08T08:07:33.388Z,100135.44
2022-12-08T08:12:40.275Z,100143.18
2022-12-08T08:17:49.374Z,100143.75
2022-12-08T08:22:55.188Z,100141.95
2022-12-08T08:28:01.001Z,100145.97
2022-12-08T08:33:06.760Z,100153.89
2022-12-08T08:38:12.781Z,100160.58
2022-12-08T08:43:37.616Z,100155.39
2022-12-08T08:48:43.924Z,100156.06
2022-12-08T08:53:49.687Z,100155.23
2022-12-08T08:58:55.612Z,100157.88
2022-12-08T09:04:01.650Z,100156.08
2022-12-08T09:09:07.460Z,100163.51
2022-12-08T09:14:15.356Z,100168.90
2022-12-08T09:19:21.113Z,100164.34
2022-12-08T09:24:27.085Z,100165.83
2022-12-08T09:29:36.198Z,100157.52
2022-12-08T09:34:45.380Z,100147.64
2022-12-08T09:39:54.830Z,100142.02
2022-12-08T09:45:09.390Z,100141.98
2022-12-08T09:50:19.940Z,100145.90
2022-12-08T09:55:36.441Z,100144.67
2022-12-08T10:00:42.217Z,100140.48
2022-12-08T10:06:03.173Z,100143.73
2022-12-08T10:11:14.449Z,100139.26
2022-12-08T10:16:28.143Z,100129.96
2022-12-08T10:21:35.577Z,100128.95
2022-12-08T10:26:41.286Z,100127.79
2022-12-08T10:31:47.050Z,100118.70
2022-12-08T10:36:56.079Z,100115.26
2022-12-08T10:42:16.770Z,100111.27
2022-12-08T10:47:24.415Z,100108.89
2022-12-08T10:52:30.216Z,100099.59
2022-12-08T10:57:40.110Z,100099.77
2022-12-08T11:03:01.228Z,100094.80
2022-12-08T11:08:05.996Z,100090.86
2022-12-08T11:13:20.059Z,100083.32
2022-12-08T11:18:31.156Z,100081.40
2022-12-08T11:23:41.115Z,100079.98
2022-12-08T11:28:46.725Z,100070.86
2022-12-08T11:33:53.373Z,100068.32
2022-12-08T11:39:49.266Z,100064.58
2022-12-08T11:45:00.161Z,100062.91
2022-12-08T11:50:21.073Z,100062.25
2022-12-08T11:55:37.323Z,100051.94
2022-12-08T12:00:45.413Z,100046.77
2022-12-08T12:06:30.791Z,100047.62
2022-12-08T12:12:02.865Z,100053.30
2022-12-08T12:17:21.520Z,100056.27
2022-12-08T12:22:33.309Z,100058.36
2022-12-08T12:27:41.469Z,100055.83
2022-12-08T12:32:51.734Z,100049.81
2022-12-08T12:38:02.941Z,100038.98
2022-12-08T12:43:27.707Z,100034.16
2022-12-08T12:48:33.462Z,100030.53
2022-12-08T12:53:52.211Z,100031.23
2022-12-08T12:59:17.941Z,100034.87
2022-12-08T13:04:31.551Z,100027.81
2022-12-08T13:09:40.012Z,100023.87
2022-12-08T13:14:51.096Z,100021.64
2022-12-08T13:19:59.319Z,100019.77
2022-12-08T13:25:37.080Z,100023.05
2022-12-08T13:30:45.948Z,100022.69
2022-12-08T13:36:04.977Z,100020.11
2022-12-08T13:41:17.559Z,100022.16
2022-12-08T13:57:28.801Z,100004.66
2022-12-08T14:02:43.771Z,100005.48
2022-12-08T14:07:55.270Z,99997.95
2022-12-08T14:13:04.374Z,99997.06
2022-12-08T14:18:25.217Z,99997.55
2022-12-08T14:23:29.632Z,99997.34
2022-12-08T14:28:37.801Z,99992.49
2022-12-08T14:33:53.251Z,99992.46
2022-12-08T14:39:02.121Z,99993.10
2022-12-08T14:44:23.870Z,99998.71
2022-12-08T14:49:37.075Z,100003.84
2022-12-08T14:54:45.476Z,100006.61
2022-12-08T14:59:53.137Z,100005.80
2022-12-08T15:05:03.333Z,100007.36
2022-12-08T15:10:22.987Z,100000.37
2022-12-08T15:15:29.510Z,99997.81
2022-12-08T15:20:42.932Z,99994.72
2022-12-08T15:25:49.079Z,99991.11
2022-12-08T15:30:55.270Z,99988.87
2022-12-08T15:36:01.213Z,99990.75
2022-12-08T15:41:10.200Z,99991.09
2022-12-08T15:46:19.114Z,99993.32
2022-12-08T15:51:25.048Z,99991.60
2022-12-08T15:56:31.215Z,99990.77
2022-12-08T16:01:38.138Z,99993.02
2022-12-08T16:13:26.788Z,99992.02
2022-12-08T16:18:02.513Z,99990.82
2022-12-08T16:23:34.163Z,99993.74
2022-12-08T16:34:00.008Z,99993.59
2022-12-08T16:39:05.896Z,99990.70
2022-12-08T16:44:11.844Z,99982.65
2022-12-08T16:49:17.858Z,99981.43
2022-12-08T16:54:23.617Z,99984.69
2022-12-08T16:59:31.068Z,99983.84
2022-12-08T17:04:36.811Z,99979.05
2022-12-08T17:09:43.265Z,99981.27
2022-12-08T17:14:49.397Z,99980.92
2022-12-08T17:19:55.186Z,99978.02
2022-12-08T17:25:04.750Z,99981.80
2022-12-08T17:30:15.636Z,99976.50
2022-12-08T17:35:21.877Z,99974.61
2022-12-08T17:40:28.454Z,99978.71
2022-12-08T17:45:34.542Z,99982.31
2022-12-08T17:50:41.356Z,99984.89
2022-12-08T17:55:53.377Z,99989.34
2022-12-08T18:00:59.065Z,99987.61
2022-12-08T18:06:08.907Z,99986.23
2022-12-08T18:11:16.944Z,99990.70
2022-12-08T18:16:25.432Z,99990.20
2022-12-08T18:21:31.245Z,99985.57
2022-12-08T18:26:37.061Z,99990.21
2022-12-08T18:31:42.925Z,99993.31
2022-12-08T18:36:48.870Z,99987.67
2022-12-08T18:41:58.429Z,99982.35
2022-12-08T18:47:04.020Z,99978.25
2022-12-08T18:52:09.961Z,99976.20
2022-12-08T18:57:17.399Z,99975.17
2022-12-08T19:02:23.347Z,99979.11
2022-12-08T19:07:29.287Z,99977.40
2022-12-08T19:12:35.058Z,99974.48
2022-12-08T19:17:47.817Z,99977.23
2022-12-08T19:22:53.690Z,99977.38
2022-12-08T19:28:00.374Z,99979.75
2022-12-08T19:33:06.448Z,99976.13
2022-12-08T19:38:12.736Z,99977.46
2022-12-08T19:43:40.042Z,99979.48
2022-12-08T19:48:46.152Z,99976.65
2022-12-08T19:53:52.873Z,99976.40
2022-12-08T19:58:58.589Z,99969.67
2022-12-08T20:04:04.689Z,99981.63
2022-12-08T20:09:11.514Z,99979.87
2022-12-08T20:14:17.788Z,99981.71
2022-12-08T20:19:23.736Z,99983.58
2022-12-08T20:24:29.885Z,99985.25
2022-12-08T20:29:35.880Z,99986.73
2022-12-08T20:34:41.547Z,99986.17
2022-12-08T20:39:47.609Z,99989.02
2022-12-08T20:44:53.305Z,99988.31
2022-12-08T20:49:59.315Z,99989.67
2022-12-08T20:55:07.234Z,99992.20
2022-12-08T21:00:14.499Z,99991.61
2022-12-08T21:05:20.548Z,99993.39
2022-12-08T21:10:27.068Z,99993.49
2022-12-08T21:15:32.994Z,99991.19
2022-12-08T21:20:38.837Z,99991.91
2022-12-08T21:25:47.304Z,99990.39
2022-12-08T21:30:53.368Z,99992.27
2022-12-08T21:36:09.387Z,99991.45
2022-12-08T21:41:37.966Z,99987.98
2022-12-08T21:46:44.595Z,99988.49
2022-12-08T21:51:50.724Z,99986.14
2022-12-08T21:56:56.535Z,99977.77
2022-12-08T22:02:02.592Z,99974.72
2022-12-08T22:07:09.755Z,99977.13
2022-12-08T22:12:16.931Z,99979.58
2022-12-08T22:17:22.856Z,99975.83
2022-12-08T22:22:29.173Z,99974.55
2022-12-08T22:27:35.852Z,99972.30
2022-12-08T22:32:42.342Z,99977.69
2022-12-08T22:37:50.535Z,99979.34
2022-12-08T22:42:56.255Z,99980.08
2022-12-08T22:48:02.198Z,99980.47
2022-12-08T22:53:08.048Z,99977.70
2022-12-08T22:58:14.024Z,99981.31
2022-12-08T23:03:20.122Z,99976.54
2022-12-08T23:08:26.664Z,99977.02
2022-12-08T23:13:32.425Z,99978.77
2022-12-08T23:18:40.726Z,99978.78
2022-12-08T23:23:47.342Z,99980.23
2022-12-08T23:28:53.437Z,99977.30
2022-12-08T23:33:59.116Z,99973.54
2022-12-08T23:39:05.961Z,99974.66
2022-12-08T23:44:12.413Z,99983.77
2022-12-08T23:49:18.251Z,99985.78
2022-12-08T23:54:24.319Z,99983.38
2022-12-08T23:59:32.588Z,99979.00
